St Gallen Altenrhein Airport LSZR

Flugplatz Daten

Name: St Gallen Altenrhein Airport

Ident: LSZR

Lat: 47,48500061

Long: 9,560770035

Platzhöhe: 1306 ft

IataCode: ACH

City: Altenrhein

Metar

2021/08/02 09:20
LSZR 020920Z 35005KT 300V040 9999 SCT035TCU BKN100 18/14 Q1017 NOSIG RMK F

Taf

Gewünschte Webcam nicht vorhanden? Dann fügen Sie eine hinzu. Sie wird dann so schnell wie möglich freigeschaltet
Url: Title: